Time;durP1;ratioP1;P1;durP2;ratioP2;P2;SDS_P1;SDS_P2;PMS_P1;PMS_P2;Temp;Humidity;BMP_temperature;BMP_pressure;BME280_temperature;BME280_humidity;BME280_pressure;Samples;Min_cycle;Max_cycle;Signal;HPM_P1;HPM_P2
2023/06/06 00:00:54;;;;;;;5.30;2.55;;;;;;;;;;5108434;28;20039;-62
2023/06/06 00:03:21;;;;;;;4.53;2.38;;;;;;;;;;5107824;28;20043;-62
2023/06/06 00:05:49;;;;;;;5.00;2.30;;;;;;;;;;5101939;28;20075;-62
2023/06/06 00:08:19;;;;;;;5.28;2.00;;;;;;;;;;5110810;28;20051;-62
2023/06/06 00:10:48;;;;;;;5.45;2.33;;;;;;;;;;5102332;28;20048;-62
2023/06/06 00:13:17;;;;;;;3.67;2.00;;;;;;;;;;5096377;28;20056;-62
2023/06/06 00:15:45;;;;;;;4.97;2.40;;;;;;;;;;5104164;28;20044;-62
2023/06/06 00:18:12;;;;;;;6.13;2.55;;;;;;;;;;5102563;28;20119;-62
2023/06/06 00:20:41;;;;;;;5.90;2.78;;;;;;;;;;5104190;28;20096;-62
2023/06/06 00:23:08;;;;;;;5.63;2.50;;;;;;;;;;5110621;28;20482;-62
2023/06/06 00:25:35;;;;;;;6.53;2.65;;;;;;;;;;5104325;27;20453;-62
2023/06/06 00:28:04;;;;;;;6.00;2.60;;;;;;;;;;5104414;28;20055;-62
2023/06/06 00:30:31;;;;;;;10.32;2.85;;;;;;;;;;5108674;28;20047;-62
2023/06/06 00:32:58;;;;;;;5.75;2.63;;;;;;;;;;5105377;28;20047;-62
2023/06/06 00:35:25;;;;;;;3.92;2.58;;;;;;;;;;5102949;28;20054;-62
2023/06/06 00:37:53;;;;;;;5.22;2.88;;;;;;;;;;5104497;28;20543;-62
2023/06/06 00:40:20;;;;;;;4.90;2.63;;;;;;;;;;5105239;28;20058;-62
2023/06/06 00:42:47;;;;;;;4.20;2.60;;;;;;;;;;5105692;28;20052;-62
2023/06/06 00:45:16;;;;;;;5.43;2.58;;;;;;;;;;5106239;28;20058;-62
2023/06/06 00:47:43;;;;;;;5.80;2.70;;;;;;;;;;5105709;28;20188;-62
2023/06/06 00:50:12;;;;;;;4.38;2.33;;;;;;;;;;5102274;28;20047;-62
2023/06/06 00:52:40;;;;;;;4.75;2.40;;;;;;;;;;5103241;28;20144;-62
2023/06/06 00:55:09;;;;;;;6.03;2.60;;;;;;;;;;5102710;27;20044;-62
2023/06/06 00:57:37;;;;;;;6.70;2.63;;;;;;;;;;5105978;28;20502;-62
2023/06/06 01:00:06;;;;;;;8.27;2.58;;;;;;;;;;5107806;28;20046;-61
2023/06/06 01:02:37;;;;;;;3.55;2.22;;;;;;;;;;5102731;28;20039;-62
2023/06/06 01:05:06;;;;;;;4.10;2.40;;;;;;;;;;5099691;28;20551;-62
2023/06/06 01:07:35;;;;;;;5.78;2.70;;;;;;;;;;5106893;28;20039;-62
2023/06/06 01:10:02;;;;;;;4.28;2.55;;;;;;;;;;5101752;28;20549;-62
2023/06/06 01:12:34;;;;;;;3.78;2.30;;;;;;;;;;5108453;28;20048;-62
2023/06/06 01:15:07;;;;;;;4.63;2.08;;;;;;;;;;5106802;28;20131;-62
2023/06/06 01:17:36;;;;;;;6.90;2.38;;;;;;;;;;5109761;28;20047;-62
2023/06/06 01:20:06;;;;;;;5.57;2.45;;;;;;;;;;5109380;28;20059;-62
2023/06/06 01:22:35;;;;;;;5.90;2.65;;;;;;;;;;5106154;28;20122;-62
2023/06/06 01:25:03;;;;;;;5.13;2.65;;;;;;;;;;5103332;28;20043;-61
2023/06/06 01:27:33;;;;;;;8.68;2.65;;;;;;;;;;5100557;28;20044;-62
2023/06/06 01:30:00;;;;;;;6.43;2.75;;;;;;;;;;5113590;28;20048;-62
2023/06/06 01:32:29;;;;;;;6.90;2.90;;;;;;;;;;5091004;28;20044;-62
2023/06/06 01:34:59;;;;;;;8.45;2.95;;;;;;;;;;5104487;28;20079;-62
2023/06/06 01:37:31;;;;;;;10.20;2.85;;;;;;;;;;5112032;28;20051;-62
2023/06/06 01:40:01;;;;;;;4.30;2.80;;;;;;;;;;5101351;28;20499;-62
2023/06/06 01:42:28;;;;;;;6.90;2.90;;;;;;;;;;5107411;28;20043;-62
2023/06/06 01:44:56;;;;;;;8.13;3.10;;;;;;;;;;5106034;28;20414;-62
2023/06/06 01:47:24;;;;;;;7.10;3.10;;;;;;;;;;5112394;28;20040;-62
2023/06/06 01:49:51;;;;;;;6.28;3.30;;;;;;;;;;5103867;28;20045;-62
2023/06/06 01:52:18;;;;;;;6.30;3.05;;;;;;;;;;5107805;28;20047;-62
2023/06/06 01:54:46;;;;;;;6.43;3.00;;;;;;;;;;5102270;27;20058;-62
2023/06/06 01:57:15;;;;;;;10.07;2.92;;;;;;;;;;5109691;28;20093;-62
2023/06/06 01:59:42;;;;;;;6.70;2.72;;;;;;;;;;5110438;28;20043;-62
2023/06/06 02:02:09;;;;;;;8.73;3.17;;;;;;;;;;5109548;28;20046;-62
2023/06/06 02:04:37;;;;;;;5.63;2.83;;;;;;;;;;5091186;28;20052;-62
2023/06/06 02:07:04;;;;;;;7.78;3.65;;;;;;;;;;5106664;28;20512;-62
2023/06/06 02:09:31;;;;;;;8.13;3.08;;;;;;;;;;5086979;28;20435;-62
2023/06/06 02:11:58;;;;;;;6.10;3.08;;;;;;;;;;5109272;28;20048;-62
2023/06/06 02:14:27;;;;;;;5.50;2.75;;;;;;;;;;5104990;28;20051;-62
2023/06/06 02:16:55;;;;;;;9.90;2.85;;;;;;;;;;5108984;28;20052;-62
2023/06/06 02:19:22;;;;;;;5.55;2.95;;;;;;;;;;5103510;28;20411;-62
2023/06/06 02:21:51;;;;;;;6.05;2.33;;;;;;;;;;5110074;28;20067;-62
2023/06/06 02:24:18;;;;;;;4.93;2.70;;;;;;;;;;5109283;28;20479;-62
2023/06/06 02:26:47;;;;;;;7.80;3.10;;;;;;;;;;5108945;28;20054;-62
2023/06/06 02:29:14;;;;;;;7.68;3.28;;;;;;;;;;5111602;28;20062;-62
2023/06/06 02:31:43;;;;;;;4.68;2.90;;;;;;;;;;5108990;28;20047;-62
2023/06/06 02:34:10;;;;;;;6.95;2.95;;;;;;;;;;5087640;28;20056;-62
2023/06/06 02:36:38;;;;;;;7.60;3.30;;;;;;;;;;5088113;28;20056;-62
2023/06/06 02:39:05;;;;;;;6.43;3.00;;;;;;;;;;5086111;28;20044;-62
2023/06/06 02:41:33;;;;;;;7.35;2.88;;;;;;;;;;5091641;28;20078;-63
2023/06/06 02:44:00;;;;;;;6.47;3.33;;;;;;;;;;5084121;28;20063;-62
2023/06/06 02:46:27;;;;;;;8.60;3.42;;;;;;;;;;5081964;28;20499;-62
2023/06/06 02:48:56;;;;;;;7.80;3.03;;;;;;;;;;5085727;28;20135;-62
2023/06/06 02:51:23;;;;;;;7.50;3.58;;;;;;;;;;5082126;28;20056;-62
2023/06/06 02:53:50;;;;;;;6.65;3.25;;;;;;;;;;5093147;28;20563;-62
2023/06/06 02:56:18;;;;;;;6.78;3.33;;;;;;;;;;5085843;28;20047;-62
2023/06/06 02:58:45;;;;;;;5.30;3.25;;;;;;;;;;5089038;28;20056;-62
2023/06/06 03:01:13;;;;;;;10.15;3.33;;;;;;;;;;5085290;28;20128;-62
2023/06/06 03:03:41;;;;;;;7.68;3.50;;;;;;;;;;5089823;28;20040;-62
2023/06/06 03:06:09;;;;;;;7.35;3.75;;;;;;;;;;5086916;28;20051;-61
2023/06/06 03:08:40;;;;;;;7.20;3.90;;;;;;;;;;5087739;28;20101;-62
2023/06/06 03:11:08;;;;;;;7.50;3.50;;;;;;;;;;5087723;28;20062;-62
2023/06/06 03:13:35;;;;;;;7.97;3.30;;;;;;;;;;5087450;28;20040;-62
2023/06/06 03:16:02;;;;;;;6.45;3.63;;;;;;;;;;5085482;28;20044;-62
2023/06/06 03:18:29;;;;;;;7.53;3.38;;;;;;;;;;5086882;28;20406;-62
2023/06/06 03:20:57;;;;;;;8.50;4.03;;;;;;;;;;5088404;28;20051;-61
2023/06/06 03:23:25;;;;;;;11.50;3.85;;;;;;;;;;5091666;28;20036;-62
2023/06/06 03:25:53;;;;;;;7.07;3.28;;;;;;;;;;5087948;28;20057;-62
2023/06/06 03:28:21;;;;;;;8.43;3.72;;;;;;;;;;5091982;28;20452;-62
2023/06/06 03:30:49;;;;;;;10.57;4.10;;;;;;;;;;5089264;28;20085;-62
2023/06/06 03:33:17;;;;;;;8.70;3.80;;;;;;;;;;5090964;28;20048;-62
2023/06/06 03:35:44;;;;;;;6.85;3.88;;;;;;;;;;5110640;27;20055;-62
2023/06/06 03:38:11;;;;;;;6.28;3.40;;;;;;;;;;5108364;28;20487;-62
2023/06/06 03:40:40;;;;;;;6.18;3.63;;;;;;;;;;5092607;28;20050;-62
2023/06/06 03:43:07;;;;;;;5.40;3.30;;;;;;;;;;5099746;28;20047;-62
2023/06/06 03:45:34;;;;;;;8.55;3.70;;;;;;;;;;5096805;28;20047;-62
2023/06/06 03:48:01;;;;;;;7.72;3.80;;;;;;;;;;5105779;28;20044;-62
2023/06/06 03:50:29;;;;;;;10.65;4.13;;;;;;;;;;5109103;28;20430;-62
2023/06/06 03:52:58;;;;;;;6.63;3.40;;;;;;;;;;5103542;28;20044;-62
2023/06/06 03:55:25;;;;;;;6.35;4.00;;;;;;;;;;5081641;28;20056;-62
2023/06/06 03:57:53;;;;;;;9.05;3.45;;;;;;;;;;5110627;28;20051;-62
2023/06/06 04:00:21;;;;;;;7.97;3.58;;;;;;;;;;5103202;28;20080;-62
2023/06/06 04:02:49;;;;;;;6.15;3.22;;;;;;;;;;5082484;28;20135;-62
2023/06/06 04:05:16;;;;;;;6.22;3.40;;;;;;;;;;5104634;28;20087;-62
2023/06/06 04:07:44;;;;;;;7.28;3.35;;;;;;;;;;5102579;28;20046;-62
2023/06/06 04:10:11;;;;;;;7.25;3.45;;;;;;;;;;5083776;28;20055;-62
2023/06/06 04:12:39;;;;;;;9.27;3.67;;;;;;;;;;5105153;28;20044;-63
2023/06/06 04:15:10;;;;;;;10.25;3.13;;;;;;;;;;5110640;28;20139;-62
2023/06/06 04:17:37;;;;;;;6.55;3.42;;;;;;;;;;5095047;28;20043;-62
2023/06/06 04:20:05;;;;;;;8.68;3.72;;;;;;;;;;5109475;28;20047;-62
2023/06/06 04:22:33;;;;;;;8.18;3.40;;;;;;;;;;5109216;28;20479;-62
2023/06/06 04:25:00;;;;;;;5.75;3.22;;;;;;;;;;5098935;28;20048;-62
2023/06/06 04:27:28;;;;;;;8.05;3.53;;;;;;;;;;5102804;27;20078;-62
2023/06/06 04:29:57;;;;;;;7.15;3.30;;;;;;;;;;5104233;28;20105;-62
2023/06/06 04:32:26;;;;;;;6.28;3.35;;;;;;;;;;5105006;28;20427;-62
2023/06/06 04:34:57;;;;;;;7.53;3.35;;;;;;;;;;5108782;28;20059;-62
2023/06/06 04:37:24;;;;;;;8.73;3.67;;;;;;;;;;5101068;28;20040;-61
2023/06/06 04:39:53;;;;;;;6.75;3.60;;;;;;;;;;5103107;28;20059;-61
2023/06/06 04:42:22;;;;;;;7.55;2.90;;;;;;;;;;5109297;27;20127;-61
2023/06/06 04:44:49;;;;;;;6.30;3.17;;;;;;;;;;5106978;27;20151;-60
2023/06/06 04:47:19;;;;;;;6.57;3.05;;;;;;;;;;5102982;27;20047;-61
2023/06/06 04:49:48;;;;;;;6.78;3.33;;;;;;;;;;5100367;28;20119;-61
2023/06/06 04:52:16;;;;;;;4.72;2.97;;;;;;;;;;5106897;28;20035;-61
2023/06/06 04:54:45;;;;;;;8.85;3.13;;;;;;;;;;5105871;27;20044;-61
2023/06/06 04:57:15;;;;;;;3.55;2.28;;;;;;;;;;5110727;27;20431;-61
2023/06/06 04:59:44;;;;;;;5.25;2.70;;;;;;;;;;5109248;28;20521;-60
2023/06/06 05:02:12;;;;;;;6.35;2.65;;;;;;;;;;5104171;28;20529;-60
2023/06/06 05:04:40;;;;;;;6.10;2.50;;;;;;;;;;5101778;28;20058;-61
2023/06/06 05:07:09;;;;;;;6.47;2.63;;;;;;;;;;5106391;28;20047;-61
2023/06/06 05:09:37;;;;;;;7.47;2.30;;;;;;;;;;5108356;28;20438;-60
2023/06/06 05:12:05;;;;;;;7.13;2.42;;;;;;;;;;5106784;28;20055;-61
2023/06/06 05:14:32;;;;;;;4.80;2.13;;;;;;;;;;5106720;28;20083;-61
2023/06/06 05:16:59;;;;;;;5.03;2.10;;;;;;;;;;5108628;28;20534;-61
2023/06/06 05:19:26;;;;;;;7.45;2.45;;;;;;;;;;5102262;28;20050;-61
2023/06/06 05:21:54;;;;;;;4.28;2.05;;;;;;;;;;5088613;28;20056;-61
2023/06/06 05:24:22;;;;;;;6.07;2.25;;;;;;;;;;5105724;28;20043;-61
2023/06/06 05:26:49;;;;;;;5.55;2.20;;;;;;;;;;5116790;28;20391;-60
2023/06/06 05:29:17;;;;;;;4.00;1.90;;;;;;;;;;5092525;28;20233;-61
2023/06/06 05:31:44;;;;;;;4.40;1.95;;;;;;;;;;5108652;28;20506;-61
2023/06/06 05:34:12;;;;;;;4.63;2.00;;;;;;;;;;5097231;28;20059;-61
2023/06/06 05:36:40;;;;;;;4.90;1.88;;;;;;;;;;5101871;28;20052;-61
2023/06/06 05:39:07;;;;;;;5.00;2.22;;;;;;;;;;5096660;28;20101;-61
2023/06/06 05:41:36;;;;;;;3.92;1.90;;;;;;;;;;5093626;28;20052;-61
2023/06/06 05:44:03;;;;;;;4.65;1.95;;;;;;;;;;5098541;28;20052;-61
2023/06/06 05:46:30;;;;;;;4.25;1.70;;;;;;;;;;5082764;28;20126;-60
2023/06/06 05:48:57;;;;;;;3.38;1.75;;;;;;;;;;5105010;28;20047;-61
2023/06/06 05:51:26;;;;;;;5.45;1.67;;;;;;;;;;5102323;28;20754;-61
2023/06/06 05:53:53;;;;;;;4.57;1.67;;;;;;;;;;5088837;28;20055;-61
2023/06/06 05:56:21;;;;;;;2.92;1.67;;;;;;;;;;5076477;28;20063;-61
2023/06/06 05:58:52;;;;;;;6.22;1.80;;;;;;;;;;5098294;28;20060;-61
2023/06/06 06:01:20;;;;;;;8.27;2.28;;;;;;;;;;5100709;28;20530;-60
2023/06/06 06:03:48;;;;;;;5.22;2.00;;;;;;;;;;5096024;28;20048;-61
2023/06/06 06:06:16;;;;;;;6.10;1.30;;;;;;;;;;5089682;28;20047;-61
2023/06/06 06:08:44;;;;;;;5.10;1.80;;;;;;;;;;5089010;28;20551;-61
2023/06/06 06:11:12;;;;;;;4.95;1.90;;;;;;;;;;5090802;28;20081;-61
2023/06/06 06:13:39;;;;;;;5.75;2.20;;;;;;;;;;5108247;28;20487;-60
2023/06/06 06:16:08;;;;;;;4.78;1.70;;;;;;;;;;5107202;28;20127;-61
2023/06/06 06:18:35;;;;;;;3.05;1.80;;;;;;;;;;5111631;28;20046;-61
2023/06/06 06:21:02;;;;;;;4.50;1.75;;;;;;;;;;5097556;28;20051;-61
2023/06/06 06:23:30;;;;;;;6.20;1.88;;;;;;;;;;5101600;28;20121;-61
2023/06/06 06:25:57;;;;;;;3.25;1.52;;;;;;;;;;5111499;28;20131;-61
2023/06/06 06:28:25;;;;;;;3.75;1.73;;;;;;;;;;5112906;28;20039;-61
2023/06/06 06:30:53;;;;;;;4.63;1.88;;;;;;;;;;5110889;28;20517;-61
2023/06/06 06:33:23;;;;;;;2.63;1.27;;;;;;;;;;5110586;28;20081;-61
2023/06/06 06:35:51;;;;;;;5.68;1.60;;;;;;;;;;5104084;27;20052;-60
2023/06/06 06:38:18;;;;;;;4.03;1.75;;;;;;;;;;5108402;28;20407;-61
2023/06/06 06:40:45;;;;;;;2.80;1.40;;;;;;;;;;5111779;27;20051;-61
2023/06/06 06:43:13;;;;;;;3.28;1.45;;;;;;;;;;5112751;27;20047;-61
2023/06/06 06:45:40;;;;;;;5.68;1.40;;;;;;;;;;5112265;28;20043;-61
2023/06/06 06:48:07;;;;;;;2.30;1.52;;;;;;;;;;5110418;28;20406;-60
2023/06/06 06:50:36;;;;;;;3.20;1.48;;;;;;;;;;5108249;28;20054;-61
2023/06/06 06:53:04;;;;;;;6.10;1.80;;;;;;;;;;5082034;28;20117;-60
2023/06/06 06:55:31;;;;;;;2.88;1.70;;;;;;;;;;5115476;27;20040;-61
2023/06/06 06:57:59;;;;;;;3.78;1.67;;;;;;;;;;5110359;28;20478;-61
2023/06/06 07:00:26;;;;;;;4.22;1.65;;;;;;;;;;5101015;28;20130;-61
2023/06/06 07:02:54;;;;;;;4.28;1.42;;;;;;;;;;5108920;28;20054;-61
2023/06/06 07:05:21;;;;;;;5.60;1.60;;;;;;;;;;5111573;28;20106;-61
2023/06/06 07:07:52;;;;;;;3.15;1.40;;;;;;;;;;5106500;28;20060;-61
2023/06/06 07:10:20;;;;;;;3.13;1.42;;;;;;;;;;5108892;28;20118;-61
2023/06/06 07:12:47;;;;;;;2.17;1.60;;;;;;;;;;5104593;28;20043;-61
2023/06/06 07:15:15;;;;;;;3.15;1.48;;;;;;;;;;5110134;28;20244;-61
2023/06/06 07:17:46;;;;;;;3.90;1.88;;;;;;;;;;5096878;28;20041;-61
2023/06/06 07:20:13;;;;;;;3.83;1.52;;;;;;;;;;5099304;28;20048;-60
2023/06/06 07:22:40;;;;;;;3.63;1.63;;;;;;;;;;5098940;28;20078;-61
2023/06/06 07:25:09;;;;;;;3.72;1.77;;;;;;;;;;5090678;28;20056;-60
2023/06/06 07:27:38;;;;;;;3.42;1.70;;;;;;;;;;5106868;28;20101;-61
2023/06/06 07:30:06;;;;;;;6.03;1.70;;;;;;;;;;5107948;28;20453;-61
2023/06/06 07:32:34;;;;;;;4.40;1.42;;;;;;;;;;5104603;28;20050;-61
2023/06/06 07:35:01;;;;;;;4.90;1.83;;;;;;;;;;5107789;28;20087;-61
2023/06/06 07:37:29;;;;;;;3.50;1.85;;;;;;;;;;5086703;28;20044;-61
2023/06/06 07:39:59;;;;;;;5.07;1.70;;;;;;;;;;5105991;28;20057;-61
2023/06/06 07:42:28;;;;;;;9.25;4.22;;;;;;;;;;5104771;28;20499;-61
2023/06/06 07:44:55;;;;;;;4.15;1.77;;;;;;;;;;5104065;28;20093;-61
2023/06/06 07:47:23;;;;;;;5.10;2.30;;;;;;;;;;5104029;28;20055;-61
2023/06/06 07:49:51;;;;;;;5.18;2.40;;;;;;;;;;5090323;28;20120;-61
2023/06/06 07:52:18;;;;;;;7.47;2.35;;;;;;;;;;5105643;28;20075;-61
2023/06/06 07:54:45;;;;;;;5.07;2.22;;;;;;;;;;5112304;27;20070;-61
2023/06/06 07:57:15;;;;;;;3.28;1.60;;;;;;;;;;5107744;28;20478;-61
2023/06/06 07:59:44;;;;;;;4.15;1.80;;;;;;;;;;5105346;28;20047;-62
2023/06/06 08:02:14;;;;;;;3.20;2.00;;;;;;;;;;5104762;28;20439;-61
2023/06/06 08:04:42;;;;;;;6.82;2.15;;;;;;;;;;5106209;28;20079;-61
2023/06/06 08:07:09;;;;;;;10.90;3.80;;;;;;;;;;5107450;28;20052;-61
2023/06/06 08:09:37;;;;;;;4.90;2.20;;;;;;;;;;5086118;28;20055;-61
2023/06/06 08:12:06;;;;;;;5.13;2.08;;;;;;;;;;5089480;28;20134;-61
2023/06/06 08:14:35;;;;;;;4.25;1.67;;;;;;;;;;5104409;28;20063;-61
2023/06/06 08:17:03;;;;;;;3.53;1.88;;;;;;;;;;5108140;28;20059;-61
2023/06/06 08:19:31;;;;;;;4.50;2.10;;;;;;;;;;5104965;28;20044;-61
2023/06/06 08:21:58;;;;;;;3.40;2.20;;;;;;;;;;5108449;28;20051;-61
2023/06/06 08:24:25;;;;;;;6.47;2.00;;;;;;;;;;5101376;28;20048;-62
2023/06/06 08:26:53;;;;;;;7.20;2.45;;;;;;;;;;5108145;27;20058;-61
2023/06/06 08:29:20;;;;;;;6.90;2.00;;;;;;;;;;5101804;28;20494;-61
2023/06/06 08:31:47;;;;;;;4.53;2.28;;;;;;;;;;5105242;28;20048;-61
2023/06/06 08:34:16;;;;;;;4.00;2.10;;;;;;;;;;5098216;27;20043;-60
2023/06/06 08:36:44;;;;;;;4.00;2.25;;;;;;;;;;5097449;28;20050;-61
2023/06/06 08:39:11;;;;;;;4.10;1.90;;;;;;;;;;5103004;28;20050;-61
2023/06/06 08:41:39;;;;;;;3.20;2.30;;;;;;;;;;5101589;28;20157;-61
2023/06/06 08:44:07;;;;;;;4.78;2.20;;;;;;;;;;5101474;28;20058;-62
2023/06/06 08:46:35;;;;;;;4.65;2.10;;;;;;;;;;5091574;28;20062;-61
2023/06/06 08:49:04;;;;;;;5.75;2.30;;;;;;;;;;5108602;28;20050;-61
2023/06/06 08:51:33;;;;;;;3.38;1.92;;;;;;;;;;5095835;28;20054;-61
2023/06/06 08:54:00;;;;;;;6.43;2.30;;;;;;;;;;5110694;27;20055;-61
2023/06/06 08:56:28;;;;;;;6.00;3.20;;;;;;;;;;5107142;28;20097;-61
2023/06/06 08:58:55;;;;;;;5.70;2.33;;;;;;;;;;5104310;28;20047;-61
2023/06/06 09:01:23;;;;;;;5.07;2.22;;;;;;;;;;5099602;28;20051;-61
2023/06/06 09:03:52;;;;;;;8.40;2.50;;;;;;;;;;5107734;28;20048;-62
2023/06/06 09:06:21;;;;;;;5.50;2.40;;;;;;;;;;5107320;28;20089;-61
2023/06/06 09:08:50;;;;;;;15.18;3.22;;;;;;;;;;5097623;28;20078;-62
2023/06/06 09:11:18;;;;;;;4.72;2.30;;;;;;;;;;5110656;28;20074;-61
2023/06/06 09:13:45;;;;;;;5.10;2.90;;;;;;;;;;5109958;28;20039;-62
2023/06/06 09:16:14;;;;;;;6.97;2.95;;;;;;;;;;5108197;28;20040;-61
2023/06/06 09:18:42;;;;;;;6.72;3.13;;;;;;;;;;5110596;28;20040;-61
2023/06/06 09:21:09;;;;;;;4.70;2.72;;;;;;;;;;5102049;28;20044;-61
2023/06/06 09:23:37;;;;;;;4.97;2.53;;;;;;;;;;5085339;28;20044;-61
2023/06/06 09:26:18;;;;;;;5.82;2.88;;;;;;;;;;5108882;28;20039;-61
2023/06/06 09:28:45;;;;;;;6.50;3.00;;;;;;;;;;5102639;28;20051;-61
2023/06/06 09:31:22;;;;;;;6.10;2.63;;;;;;;;;;5106083;28;20097;-61
2023/06/06 09:33:50;;;;;;;4.32;2.42;;;;;;;;;;5100372;28;20560;-61
2023/06/06 09:36:17;;;;;;;6.03;2.35;;;;;;;;;;5102503;28;20109;-61
2023/06/06 09:38:45;;;;;;;9.05;2.63;;;;;;;;;;5083080;28;20056;-62
2023/06/06 09:41:13;;;;;;;4.97;2.70;;;;;;;;;;5081530;28;20060;-61
2023/06/06 09:43:40;;;;;;;7.97;2.65;;;;;;;;;;5084833;28;20074;-61
2023/06/06 09:46:08;;;;;;;6.05;2.83;;;;;;;;;;5109454;28;20058;-62
2023/06/06 09:48:35;;;;;;;4.68;2.80;;;;;;;;;;5108339;28;20076;-61
2023/06/06 09:51:04;;;;;;;5.22;2.75;;;;;;;;;;5105076;28;20055;-62
2023/06/06 09:53:31;;;;;;;7.35;2.60;;;;;;;;;;5083140;28;20058;-61
2023/06/06 09:56:03;;;;;;;8.95;2.97;;;;;;;;;;5107469;27;20523;-61
2023/06/06 09:58:32;;;;;;;5.18;2.60;;;;;;;;;;5110607;28;20055;-61
2023/06/06 10:01:01;;;;;;;3.42;2.15;;;;;;;;;;5103577;28;20047;-62
2023/06/06 10:03:30;;;;;;;7.20;3.03;;;;;;;;;;5089096;28;20056;-62
2023/06/06 10:05:58;;;;;;;6.13;2.92;;;;;;;;;;5104417;27;20052;-62
2023/06/06 10:08:25;;;;;;;6.18;2.78;;;;;;;;;;5113182;28;20056;-61
2023/06/06 10:10:53;;;;;;;6.72;3.17;;;;;;;;;;5105289;28;20048;-61
2023/06/06 10:13:22;;;;;;;5.38;2.65;;;;;;;;;;5110571;27;20490;-62
2023/06/06 10:15:51;;;;;;;5.03;2.88;;;;;;;;;;5092920;28;20079;-62
2023/06/06 10:18:18;;;;;;;6.00;3.00;;;;;;;;;;5111476;28;20054;-62
2023/06/06 10:20:46;;;;;;;4.57;2.97;;;;;;;;;;5103104;28;20598;-61
2023/06/06 10:23:13;;;;;;;8.10;3.28;;;;;;;;;;5093025;28;20080;-62
2023/06/06 10:25:40;;;;;;;6.85;2.88;;;;;;;;;;5091162;28;20475;-62
2023/06/06 10:28:10;;;;;;;6.82;2.97;;;;;;;;;;5112927;28;20046;-62
2023/06/06 10:30:45;;;;;;;6.57;2.83;;;;;;;;;;5106740;28;20050;-62
2023/06/06 10:33:18;;;;;;;7.68;3.17;;;;;;;;;;5104605;27;20123;-61
2023/06/06 10:35:46;;;;;;;4.60;3.20;;;;;;;;;;5093527;28;20525;-61
2023/06/06 10:38:14;;;;;;;5.60;2.83;;;;;;;;;;5110594;28;20406;-62
2023/06/06 10:40:42;;;;;;;4.75;3.00;;;;;;;;;;5112371;28;20048;-62
2023/06/06 10:43:10;;;;;;;8.95;3.65;;;;;;;;;;5103539;28;20055;-61
2023/06/06 10:45:44;;;;;;;5.75;3.60;;;;;;;;;;5112586;28;20367;-62
2023/06/06 10:48:13;;;;;;;7.47;3.83;;;;;;;;;;5111012;28;20499;-62
2023/06/06 10:50:54;;;;;;;6.97;3.80;;;;;;;;;;5091960;28;20048;-62
2023/06/06 10:53:21;;;;;;;5.63;3.63;;;;;;;;;;5106097;28;20093;-62
2023/06/06 10:55:48;;;;;;;5.68;3.70;;;;;;;;;;5110081;27;20047;-62
2023/06/06 10:58:20;;;;;;;6.78;3.35;;;;;;;;;;5111412;28;20058;-62
2023/06/06 11:00:49;;;;;;;6.47;3.63;;;;;;;;;;5111175;27;20570;-62
2023/06/06 11:03:18;;;;;;;7.07;3.05;;;;;;;;;;5106124;28;20463;-62
2023/06/06 11:06:04;;;;;;;8.68;3.40;;;;;;;;;;5110891;28;20048;-62
2023/06/06 11:08:36;;;;;;;5.53;2.90;;;;;;;;;;5108212;28;20558;-62
2023/06/06 11:11:35;;;;;;;4.63;3.13;;;;;;;;;;5108752;28;20052;-62
2023/06/06 11:14:03;;;;;;;8.80;2.78;;;;;;;;;;5026851;28;20049;-62
2023/06/06 11:16:31;;;;;;;5.55;2.65;;;;;;;;;;5090739;28;20044;-62
2023/06/06 11:19:04;;;;;;;6.53;3.17;;;;;;;;;;5103950;28;20055;-63
2023/06/06 11:21:32;;;;;;;4.60;2.65;;;;;;;;;;5107017;28;20101;-63
2023/06/06 11:24:01;;;;;;;5.20;2.42;;;;;;;;;;5099502;28;20052;-62
2023/06/06 11:26:28;;;;;;;5.13;2.70;;;;;;;;;;5112183;27;20406;-62
2023/06/06 11:28:56;;;;;;;4.13;2.28;;;;;;;;;;5107801;28;20120;-62
2023/06/06 11:31:24;;;;;;;10.18;2.80;;;;;;;;;;5102026;28;20109;-62
2023/06/06 11:33:51;;;;;;;5.47;2.53;;;;;;;;;;5109045;28;20059;-63
2023/06/06 11:36:19;;;;;;;4.75;2.60;;;;;;;;;;5111831;28;20040;-63
2023/06/06 11:38:46;;;;;;;5.95;2.60;;;;;;;;;;5108400;28;20047;-62
2023/06/06 11:41:15;;;;;;;7.18;2.97;;;;;;;;;;5100280;28;20055;-62
2023/06/06 11:43:50;;;;;;;6.82;2.63;;;;;;;;;;5104558;28;20040;-63
2023/06/06 11:46:18;;;;;;;8.20;2.58;;;;;;;;;;5109317;28;20086;-63
2023/06/06 11:48:45;;;;;;;6.43;2.70;;;;;;;;;;5109922;28;20047;-62
2023/06/06 11:51:12;;;;;;;5.78;2.75;;;;;;;;;;5103897;28;20503;-63
2023/06/06 11:53:40;;;;;;;6.50;2.85;;;;;;;;;;5103904;28;20036;-63
2023/06/06 11:56:07;;;;;;;5.15;2.60;;;;;;;;;;5108408;28;20093;-63
2023/06/06 11:58:41;;;;;;;4.35;3.05;;;;;;;;;;5097977;28;20063;-63
2023/06/06 12:01:09;;;;;;;5.57;2.92;;;;;;;;;;5105946;27;20129;-63
2023/06/06 12:03:36;;;;;;;7.50;3.13;;;;;;;;;;5109456;28;20052;-63
2023/06/06 12:06:04;;;;;;;5.78;2.67;;;;;;;;;;5106271;28;20048;-63
2023/06/06 12:08:33;;;;;;;5.85;2.90;;;;;;;;;;5091550;28;20105;-64
2023/06/06 12:11:15;;;;;;;5.93;2.30;;;;;;;;;;5101777;28;20047;-63
2023/06/06 12:13:43;;;;;;;3.17;2.10;;;;;;;;;;5104973;28;20055;-63
2023/06/06 12:16:11;;;;;;;4.47;2.10;;;;;;;;;;5108074;28;20286;-63
2023/06/06 12:18:46;;;;;;;3.95;2.10;;;;;;;;;;5092405;28;20047;-63
2023/06/06 12:21:16;;;;;;;5.72;2.20;;;;;;;;;;5101992;28;20080;-63
2023/06/06 12:23:44;;;;;;;5.07;2.28;;;;;;;;;;5109218;28;20055;-63
2023/06/06 12:26:12;;;;;;;2.92;2.10;;;;;;;;;;5103225;27;20452;-63
2023/06/06 12:28:54;;;;;;;5.45;2.15;;;;;;;;;;5101969;28;20044;-63
2023/06/06 12:31:24;;;;;;;5.00;2.25;;;;;;;;;;5111294;28;20490;-63
2023/06/06 12:33:52;;;;;;;4.35;2.17;;;;;;;;;;5109568;27;20499;-63
2023/06/06 12:36:21;;;;;;;6.32;2.10;;;;;;;;;;5096658;28;20059;-63
2023/06/06 12:38:55;;;;;;;3.13;1.88;;;;;;;;;;5107959;28;20069;-63
2023/06/06 12:41:22;;;;;;;4.70;2.20;;;;;;;;;;5105319;28;20043;-63
2023/06/06 12:43:50;;;;;;;3.65;2.00;;;;;;;;;;5105064;28;20058;-64
2023/06/06 12:46:18;;;;;;;4.68;2.40;;;;;;;;;;5105241;28;20444;-63
2023/06/06 12:48:47;;;;;;;4.88;2.15;;;;;;;;;;5108974;28;20567;-63
2023/06/06 12:51:15;;;;;;;3.15;1.75;;;;;;;;;;5100064;28;20058;-63
2023/06/06 12:53:42;;;;;;;5.07;2.28;;;;;;;;;;5108467;27;20079;-64
2023/06/06 12:56:09;;;;;;;11.68;3.03;;;;;;;;;;5097139;28;20047;-63
2023/06/06 12:58:36;;;;;;;3.60;2.05;;;;;;;;;;5099800;28;20044;-63
2023/06/06 13:01:04;;;;;;;3.60;1.98;;;;;;;;;;5106755;28;20517;-63
2023/06/06 13:03:32;;;;;;;4.75;2.60;;;;;;;;;;5103414;28;20055;-63
2023/06/06 13:06:00;;;;;;;6.13;2.00;;;;;;;;;;5103640;28;20490;-63
2023/06/06 13:08:27;;;;;;;4.25;1.92;;;;;;;;;;5102614;28;20486;-63
2023/06/06 13:10:55;;;;;;;3.83;2.08;;;;;;;;;;5106976;28;20047;-64
2023/06/06 13:13:23;;;;;;;3.65;2.28;;;;;;;;;;5108316;28;20043;-63
2023/06/06 13:15:51;;;;;;;4.40;2.47;;;;;;;;;;5106259;28;20052;-64
2023/06/06 13:18:18;;;;;;;4.13;2.65;;;;;;;;;;5106347;28;20050;-63
2023/06/06 13:20:46;;;;;;;4.43;2.60;;;;;;;;;;5107434;28;20064;-64
2023/06/06 13:23:14;;;;;;;3.53;2.25;;;;;;;;;;5108808;28;20146;-63
2023/06/06 13:25:41;;;;;;;5.95;2.50;;;;;;;;;;5110823;27;20760;-63
2023/06/06 13:28:09;;;;;;;5.10;2.70;;;;;;;;;;5111664;28;20079;-63
2023/06/06 13:30:36;;;;;;;4.97;2.58;;;;;;;;;;5112649;28;20054;-63
2023/06/06 13:33:05;;;;;;;6.57;2.78;;;;;;;;;;5113962;28;20050;-61
2023/06/06 13:35:32;;;;;;;4.38;2.30;;;;;;;;;;5113424;27;20097;-61
2023/06/06 13:37:59;;;;;;;4.57;2.65;;;;;;;;;;5112579;28;20407;-61
2023/06/06 13:40:28;;;;;;;6.20;2.50;;;;;;;;;;5112839;28;20050;-61
2023/06/06 13:42:55;;;;;;;4.85;2.60;;;;;;;;;;5111450;28;20054;-61
2023/06/06 13:45:23;;;;;;;3.85;2.42;;;;;;;;;;5111470;28;20044;-61
2023/06/06 13:47:51;;;;;;;5.32;2.83;;;;;;;;;;5111874;28;20051;-61
2023/06/06 13:50:18;;;;;;;8.45;2.95;;;;;;;;;;5098462;28;20051;-61
2023/06/06 13:52:46;;;;;;;4.22;2.35;;;;;;;;;;5110006;28;20612;-62
2023/06/06 13:55:13;;;;;;;3.33;2.53;;;;;;;;;;5113593;27;20052;-62
2023/06/06 13:57:50;;;;;;;4.13;2.55;;;;;;;;;;5111522;28;20050;-61
2023/06/06 14:00:18;;;;;;;5.72;2.70;;;;;;;;;;5095290;28;20561;-61
2023/06/06 14:02:45;;;;;;;3.90;2.53;;;;;;;;;;5085571;28;20106;-62
2023/06/06 14:05:13;;;;;;;3.05;2.40;;;;;;;;;;5106267;28;20043;-61
2023/06/06 14:07:40;;;;;;;5.43;2.38;;;;;;;;;;5107536;28;20060;-61
2023/06/06 14:10:08;;;;;;;3.83;2.45;;;;;;;;;;5087172;28;20043;-61
2023/06/06 14:12:35;;;;;;;4.53;2.67;;;;;;;;;;5108987;27;20406;-62
2023/06/06 14:15:04;;;;;;;4.03;2.53;;;;;;;;;;5113186;27;20047;-61
2023/06/06 14:17:32;;;;;;;4.40;2.70;;;;;;;;;;5102883;28;20391;-62
2023/06/06 14:19:59;;;;;;;4.30;2.88;;;;;;;;;;5110882;28;20051;-62
2023/06/06 14:22:32;;;;;;;3.83;2.58;;;;;;;;;;5084920;28;20130;-61
2023/06/06 14:24:59;;;;;;;4.30;3.05;;;;;;;;;;5108745;27;20048;-62
2023/06/06 14:27:29;;;;;;;6.80;3.17;;;;;;;;;;5106855;28;20044;-62
2023/06/06 14:29:57;;;;;;;7.82;3.30;;;;;;;;;;5105571;28;20131;-62
2023/06/06 14:32:28;;;;;;;5.57;3.05;;;;;;;;;;5109524;28;20118;-62
2023/06/06 14:34:56;;;;;;;5.78;3.45;;;;;;;;;;5109978;28;20120;-61
2023/06/06 14:37:23;;;;;;;4.03;2.35;;;;;;;;;;5087438;28;20055;-62
2023/06/06 14:39:51;;;;;;;5.35;2.88;;;;;;;;;;5108731;28;20396;-61
2023/06/06 14:42:18;;;;;;;4.18;2.65;;;;;;;;;;5112090;28;20479;-62
2023/06/06 14:44:45;;;;;;;4.32;2.30;;;;;;;;;;5108718;28;20077;-62
2023/06/06 14:47:13;;;;;;;4.85;2.72;;;;;;;;;;5084002;28;20403;-62
2023/06/06 14:49:42;;;;;;;3.10;2.53;;;;;;;;;;5109508;28;20044;-62